createdAt,value
2022-10-04T00:00:59.246Z,1021.03
2022-10-04T00:01:59.287Z,1021.08
2022-10-04T00:02:59.371Z,1021.12
2022-10-04T00:03:59.171Z,1021.17
2022-10-04T00:04:59.169Z,1021.10
2022-10-04T00:05:59.184Z,1021.14
2022-10-04T00:06:59.133Z,1021.16
2022-10-04T00:07:59.112Z,1021.08
2022-10-04T00:08:59.123Z,1021.10
2022-10-04T00:09:59.108Z,1021.10
2022-10-04T00:10:59.097Z,1021.10
2022-10-04T00:11:59.081Z,1021.12
2022-10-04T00:12:59.069Z,1021.15
2022-10-04T00:13:59.055Z,1021.20
2022-10-04T00:14:59.041Z,1021.16
2022-10-04T00:15:59.047Z,1021.15
2022-10-04T00:16:59.030Z,1021.16
2022-10-04T00:17:58.980Z,1021.14
2022-10-04T00:18:58.991Z,1021.13
2022-10-04T00:20:53.196Z,1021.13
2022-10-04T00:21:53.141Z,1021.11
2022-10-04T00:22:54.849Z,1021.07
2022-10-04T00:23:53.109Z,1021.08
2022-10-04T00:24:53.094Z,1021.05
2022-10-04T00:25:53.081Z,1021.05
2022-10-04T00:26:53.102Z,1021.04
2022-10-04T00:27:53.120Z,1021.02
2022-10-04T00:28:53.050Z,1021.01
2022-10-04T00:29:53.039Z,1020.97
2022-10-04T00:30:53.030Z,1021.00
2022-10-04T00:31:53.123Z,1021.00
2022-10-04T00:32:52.999Z,1021.00
2022-10-04T00:33:52.980Z,1020.98
2022-10-04T00:34:52.968Z,1020.97
2022-10-04T00:35:52.971Z,1020.92
2022-10-04T00:36:52.956Z,1020.94
2022-10-04T00:37:52.949Z,1020.96
2022-10-04T00:38:52.921Z,1020.98
2022-10-04T00:39:52.938Z,1020.98
2022-10-04T00:40:52.914Z,1020.97
2022-10-04T00:41:52.908Z,1021.03
2022-10-04T00:42:52.905Z,1020.92
2022-10-04T00:43:52.867Z,1020.86
2022-10-04T00:44:52.838Z,1020.92
2022-10-04T00:45:52.905Z,1020.88
2022-10-04T00:46:52.838Z,1020.91
2022-10-04T00:47:52.816Z,1020.85
2022-10-04T00:48:52.801Z,1020.87
2022-10-04T00:49:52.775Z,1020.83
2022-10-04T00:50:52.788Z,1020.84
2022-10-04T00:51:52.775Z,1020.76
2022-10-04T00:52:52.736Z,1020.81
2022-10-04T00:53:52.730Z,1020.81
2022-10-04T00:54:52.718Z,1020.75
2022-10-04T00:55:52.710Z,1020.73
2022-10-04T00:56:52.700Z,1020.71
2022-10-04T00:57:52.715Z,1020.65
2022-10-04T00:58:52.664Z,1020.70
2022-10-04T00:59:52.658Z,1020.61
2022-10-04T01:00:52.722Z,1020.70
2022-10-04T01:01:52.658Z,1020.70
2022-10-04T01:02:52.639Z,1020.70
2022-10-04T01:03:52.611Z,1020.70
2022-10-04T01:04:52.585Z,1020.64
2022-10-04T01:05:52.578Z,1020.66
2022-10-04T01:06:52.554Z,1020.67
2022-10-04T01:07:52.578Z,1020.75
2022-10-04T01:08:52.551Z,1020.68
2022-10-04T01:09:52.515Z,1020.70
2022-10-04T01:10:52.525Z,1020.73
2022-10-04T01:11:52.506Z,1020.70
2022-10-04T01:12:52.515Z,1020.72
2022-10-04T01:13:52.477Z,1020.74
2022-10-04T01:14:52.470Z,1020.65
2022-10-04T01:15:52.498Z,1020.70
2022-10-04T01:16:52.438Z,1020.73
2022-10-04T01:17:52.438Z,1020.74
2022-10-04T01:18:52.400Z,1020.68
2022-10-04T01:19:52.401Z,1020.73
2022-10-04T01:20:52.387Z,1020.69
2022-10-04T01:21:52.379Z,1020.66
2022-10-04T01:22:52.376Z,1020.66
2022-10-04T01:23:52.340Z,1020.70
2022-10-04T01:24:52.340Z,1020.73
2022-10-04T01:25:52.312Z,1020.75
2022-10-04T01:26:52.293Z,1020.76
2022-10-04T01:27:52.333Z,1020.75
2022-10-04T01:28:52.295Z,1020.78
2022-10-04T01:29:52.265Z,1020.78
2022-10-04T01:30:52.252Z,1020.77
2022-10-04T01:31:52.326Z,1020.82
2022-10-04T01:32:52.239Z,1020.76
2022-10-04T01:33:52.226Z,1020.67
2022-10-04T01:34:52.215Z,1020.71
2022-10-04T01:35:52.194Z,1020.69
2022-10-04T01:36:52.183Z,1020.71
2022-10-04T01:37:52.185Z,1020.66
2022-10-04T01:38:52.175Z,1020.66
2022-10-04T01:39:52.148Z,1020.68
2022-10-04T01:40:52.125Z,1020.64
2022-10-04T01:41:52.115Z,1020.63
2022-10-04T01:42:52.124Z,1020.60
2022-10-04T01:43:52.082Z,1020.55
2022-10-04T01:44:52.083Z,1020.58
2022-10-04T01:45:52.070Z,1020.62
2022-10-04T01:46:52.148Z,1020.54
2022-10-04T01:47:52.038Z,1020.55
2022-10-04T01:48:52.037Z,1020.55
2022-10-04T01:49:52.013Z,1020.56
2022-10-04T01:50:52.011Z,1020.52
2022-10-04T01:51:51.979Z,1020.53
2022-10-04T01:52:51.978Z,1020.49
2022-10-04T01:53:51.960Z,1020.53
2022-10-04T01:54:51.940Z,1020.51
2022-10-04T01:55:51.927Z,1020.46
2022-10-04T01:56:51.911Z,1020.41
2022-10-04T01:57:51.919Z,1020.47
2022-10-04T01:58:51.889Z,1020.43
2022-10-04T01:59:51.890Z,1020.52
2022-10-04T02:00:51.958Z,1020.42
2022-10-04T02:01:51.847Z,1020.33
2022-10-04T02:02:51.850Z,1020.44
2022-10-04T02:03:51.844Z,1020.44
2022-10-04T02:04:51.838Z,1020.45
2022-10-04T02:05:51.810Z,1020.47
2022-10-04T02:06:51.788Z,1020.48
2022-10-04T02:07:51.775Z,1020.49
2022-10-04T02:08:51.787Z,1020.49
2022-10-04T02:09:51.747Z,1020.45
2022-10-04T02:10:51.759Z,1020.51
2022-10-04T02:11:51.737Z,1020.44
2022-10-04T02:12:51.705Z,1020.43
2022-10-04T02:13:51.722Z,1020.36
2022-10-04T02:14:51.699Z,1020.38
2022-10-04T02:15:51.711Z,1020.45
2022-10-04T02:16:51.662Z,1020.49
2022-10-04T02:17:51.636Z,1020.48
2022-10-04T02:18:51.654Z,1020.46
2022-10-04T02:19:51.613Z,1020.40
2022-10-04T02:20:51.604Z,1020.38
2022-10-04T02:21:51.745Z,1020.40
2022-10-04T02:22:51.597Z,1020.30
2022-10-04T02:23:51.577Z,1020.28
2022-10-04T02:24:51.568Z,1020.31
2022-10-04T02:25:51.544Z,1020.26
2022-10-04T02:26:51.527Z,1020.27
2022-10-04T02:27:51.544Z,1020.21
2022-10-04T02:28:51.512Z,1020.25
2022-10-04T02:29:51.494Z,1020.14
2022-10-04T02:30:51.537Z,1020.24
2022-10-04T02:31:51.478Z,1020.24
2022-10-04T02:32:51.457Z,1020.32
2022-10-04T02:33:51.497Z,1020.29
2022-10-04T02:34:51.424Z,1020.25
2022-10-04T02:35:51.424Z,1020.30
2022-10-04T02:36:51.399Z,1020.19
2022-10-04T02:37:51.397Z,1020.16
2022-10-04T02:38:51.384Z,1020.17
2022-10-04T02:39:51.393Z,1020.13
2022-10-04T02:40:51.366Z,1020.09
2022-10-04T02:41:51.334Z,1020.08
2022-10-04T02:42:51.335Z,1020.12
2022-10-04T02:43:51.318Z,1020.05
2022-10-04T02:44:51.315Z,1020.12
2022-10-04T02:45:51.307Z,1020.06
2022-10-04T02:46:51.287Z,1020.04
2022-10-04T02:47:51.253Z,1020.02
2022-10-04T02:48:51.283Z,1020.04
2022-10-04T02:49:51.241Z,1019.96
2022-10-04T02:50:51.220Z,1019.96
2022-10-04T02:51:51.225Z,1019.96
2022-10-04T02:52:51.208Z,1019.92
2022-10-04T02:53:51.182Z,1019.89
2022-10-04T02:54:51.180Z,1019.93
2022-10-04T02:55:51.168Z,1019.92
2022-10-04T02:56:51.162Z,1019.90
2022-10-04T02:57:51.147Z,1019.92
2022-10-04T02:58:51.110Z,1019.94
2022-10-04T02:59:51.122Z,1019.90
2022-10-04T03:00:51.153Z,1019.97
2022-10-04T03:01:51.171Z,1019.88
2022-10-04T03:02:51.082Z,1019.80
2022-10-04T03:03:51.059Z,1019.84
2022-10-04T03:04:51.053Z,1019.80
2022-10-04T03:05:51.041Z,1019.84
2022-10-04T03:06:51.008Z,1019.84
2022-10-04T03:07:50.998Z,1019.79
2022-10-04T03:08:50.988Z,1019.84
2022-10-04T03:09:50.989Z,1019.81
2022-10-04T03:10:50.981Z,1019.80
2022-10-04T03:11:50.951Z,1019.77
2022-10-04T03:12:50.957Z,1019.76
2022-10-04T03:13:50.925Z,1019.74
2022-10-04T03:14:50.931Z,1019.73
2022-10-04T03:15:50.926Z,1019.68
2022-10-04T03:16:50.913Z,1019.70
2022-10-04T03:17:50.893Z,1019.64
2022-10-04T03:18:50.882Z,1019.62
2022-10-04T03:19:50.867Z,1019.63
2022-10-04T03:20:50.834Z,1019.64
2022-10-04T03:21:50.816Z,1019.64
2022-10-04T03:22:50.819Z,1019.66
2022-10-04T03:23:50.799Z,1019.65
2022-10-04T03:24:50.795Z,1019.66
2022-10-04T03:25:50.778Z,1019.62
2022-10-04T03:26:50.745Z,1019.60
2022-10-04T03:27:50.776Z,1019.58
2022-10-04T03:28:50.739Z,1019.62
2022-10-04T03:29:52.682Z,1019.56
2022-10-04T03:30:50.710Z,1019.63
2022-10-04T03:31:50.745Z,1019.62
2022-10-04T03:32:50.682Z,1019.63
2022-10-04T03:33:50.678Z,1019.64
2022-10-04T03:34:50.678Z,1019.62
2022-10-04T03:35:50.645Z,1019.61
2022-10-04T03:36:50.623Z,1019.57
2022-10-04T03:37:50.630Z,1019.65
2022-10-04T03:38:50.616Z,1019.66
2022-10-04T03:39:50.611Z,1019.64
2022-10-04T03:40:50.589Z,1019.67
2022-10-04T03:41:50.567Z,1019.69
2022-10-04T03:42:50.569Z,1019.74
2022-10-04T03:43:50.555Z,1019.69
2022-10-04T03:44:50.534Z,1019.70
2022-10-04T03:45:50.556Z,1019.63
2022-10-04T03:46:50.514Z,1019.71
2022-10-04T03:47:50.509Z,1019.64
2022-10-04T03:48:50.488Z,1019.59
2022-10-04T03:49:51.110Z,1019.59
2022-10-04T03:50:50.444Z,1019.56
2022-10-04T03:51:50.453Z,1019.51
2022-10-04T03:52:50.422Z,1019.53
2022-10-04T03:53:50.422Z,1019.53
2022-10-04T03:54:50.433Z,1019.53
2022-10-04T03:55:50.383Z,1019.55
2022-10-04T03:56:50.376Z,1019.47
2022-10-04T03:57:50.364Z,1019.53
2022-10-04T03:58:50.371Z,1019.51
2022-10-04T03:59:50.372Z,1019.43
2022-10-04T04:00:50.374Z,1019.39
2022-10-04T04:01:50.364Z,1019.37
2022-10-04T04:02:50.308Z,1019.39
2022-10-04T04:03:50.281Z,1019.41
2022-10-04T04:04:50.286Z,1019.36
2022-10-04T04:05:50.260Z,1019.34
2022-10-04T04:06:50.262Z,1019.36
2022-10-04T04:07:50.244Z,1019.32
2022-10-04T04:08:50.210Z,1019.32
2022-10-04T04:09:50.224Z,1019.39
2022-10-04T04:10:50.236Z,1019.35
2022-10-04T04:11:50.179Z,1019.39
2022-10-04T04:12:50.181Z,1019.37
2022-10-04T04:13:50.153Z,1019.38
2022-10-04T04:14:50.140Z,1019.38
2022-10-04T04:15:50.219Z,1019.41
2022-10-04T04:16:50.120Z,1019.41
2022-10-04T04:17:50.108Z,1019.42
2022-10-04T04:18:50.087Z,1019.48
2022-10-04T04:19:50.078Z,1019.47
2022-10-04T04:20:50.082Z,1019.55
2022-10-04T04:21:50.073Z,1019.49
2022-10-04T04:22:50.030Z,1019.46
2022-10-04T04:23:50.044Z,1019.51
2022-10-04T04:24:50.030Z,1019.47
2022-10-04T04:25:50.020Z,1019.48
2022-10-04T04:26:49.999Z,1019.49
2022-10-04T04:27:50.081Z,1019.48
2022-10-04T04:28:49.964Z,1019.48
2022-10-04T04:29:49.947Z,1019.51
2022-10-04T04:30:49.976Z,1019.48
2022-10-04T04:31:49.960Z,1019.50
2022-10-04T04:32:49.921Z,1019.56
2022-10-04T04:33:49.921Z,1019.42
2022-10-04T04:34:49.891Z,1019.46
2022-10-04T04:35:49.888Z,1019.40
2022-10-04T04:36:49.866Z,1019.45
2022-10-04T04:37:49.881Z,1019.41
2022-10-04T04:38:49.826Z,1019.49
2022-10-04T04:39:49.833Z,1019.55
2022-10-04T04:40:49.833Z,1019.51
2022-10-04T04:41:50.882Z,1019.48
2022-10-04T04:42:49.797Z,1019.49
2022-10-04T04:43:49.784Z,1019.53
2022-10-04T04:44:49.759Z,1019.48
2022-10-04T04:46:02.888Z,1019.46
2022-10-04T04:46:50.791Z,1019.53
2022-10-04T04:47:49.759Z,1019.38
2022-10-04T04:48:49.740Z,1019.40
2022-10-04T04:49:49.695Z,1019.43
2022-10-04T04:50:49.695Z,1019.36
2022-10-04T04:51:49.680Z,1019.31
2022-10-04T04:52:49.667Z,1019.41
2022-10-04T04:53:49.657Z,1019.39
2022-10-04T04:54:49.624Z,1019.42
2022-10-04T04:56:03.249Z,1019.35
2022-10-04T04:56:50.614Z,1019.40
2022-10-04T04:57:49.593Z,1019.33
2022-10-04T04:58:49.575Z,1019.35
2022-10-04T04:59:49.576Z,1019.32
2022-10-04T05:00:49.600Z,1019.28
2022-10-04T05:01:49.579Z,1019.29
2022-10-04T05:02:49.523Z,1019.28
2022-10-04T05:03:49.533Z,1019.26
2022-10-04T05:04:49.494Z,1019.21
2022-10-04T05:05:49.532Z,1019.12
2022-10-04T05:06:49.473Z,1019.20
2022-10-04T05:07:49.488Z,1019.19
2022-10-04T05:08:49.455Z,1019.19
2022-10-04T05:09:49.458Z,1019.24
2022-10-04T05:10:49.454Z,1019.23
2022-10-04T05:11:49.436Z,1019.19
2022-10-04T05:12:49.413Z,1019.23
2022-10-04T05:13:49.405Z,1019.25
2022-10-04T05:14:49.360Z,1019.31
2022-10-04T05:15:49.372Z,1019.22
2022-10-04T05:16:49.374Z,1019.23
2022-10-04T05:17:49.337Z,1019.20
2022-10-04T05:18:49.326Z,1019.23
2022-10-04T05:19:49.307Z,1019.28
2022-10-04T05:20:49.324Z,1019.27
2022-10-04T05:21:49.458Z,1019.27
2022-10-04T05:22:49.284Z,1019.31
2022-10-04T05:23:49.284Z,1019.26
2022-10-04T05:24:49.242Z,1019.26
2022-10-04T05:25:49.239Z,1019.23
2022-10-04T05:26:49.247Z,1019.19
2022-10-04T05:27:49.199Z,1019.19
2022-10-04T05:28:49.211Z,1019.15
2022-10-04T05:29:49.203Z,1019.09
2022-10-04T05:30:49.202Z,1019.16
2022-10-04T05:31:49.213Z,1019.06
2022-10-04T05:32:49.162Z,1019.08
2022-10-04T05:33:49.149Z,1019.10
2022-10-04T05:34:49.132Z,1019.09
2022-10-04T05:35:49.130Z,1019.23
2022-10-04T05:36:49.101Z,1019.24
2022-10-04T05:37:49.108Z,1019.16
2022-10-04T05:38:49.082Z,1019.24
2022-10-04T05:39:49.047Z,1019.25
2022-10-04T05:40:49.059Z,1019.25
2022-10-04T05:41:49.040Z,1019.20
2022-10-04T05:42:49.008Z,1019.22
2022-10-04T05:43:49.009Z,1019.20
2022-10-04T05:44:49.010Z,1019.23
2022-10-04T05:45:49.017Z,1019.20
2022-10-04T05:46:48.972Z,1019.16
2022-10-04T05:47:48.983Z,1019.17
2022-10-04T05:48:48.951Z,1019.16
2022-10-04T05:49:48.946Z,1019.19
2022-10-04T05:50:48.940Z,1019.16
2022-10-04T05:51:48.895Z,1019.11
2022-10-04T05:52:48.888Z,1019.21
2022-10-04T05:53:48.889Z,1019.12
2022-10-04T05:54:48.879Z,1019.20
2022-10-04T05:55:48.869Z,1019.11
2022-10-04T05:56:48.832Z,1019.19
2022-10-04T05:57:48.833Z,1019.13
2022-10-04T05:58:48.817Z,1019.10
2022-10-04T05:59:48.797Z,1019.12
2022-10-04T06:00:48.813Z,1019.10
2022-10-04T06:01:49.008Z,1019.21
2022-10-04T06:02:48.797Z,1019.09
2022-10-04T06:03:48.762Z,1019.11
2022-10-04T06:04:48.731Z,1019.08
2022-10-04T06:05:48.721Z,1019.10
2022-10-04T06:06:48.713Z,1019.08
2022-10-04T06:07:48.694Z,1019.13
2022-10-04T06:08:48.685Z,1019.18
2022-10-04T06:09:48.762Z,1019.22
2022-10-04T06:10:48.669Z,1019.21
2022-10-04T06:11:48.665Z,1019.30
2022-10-04T06:12:48.635Z,1019.23
2022-10-04T06:13:48.641Z,1019.30
2022-10-04T06:14:48.634Z,1019.31
2022-10-04T06:15:48.618Z,1019.27
2022-10-04T06:16:48.652Z,1019.28
2022-10-04T06:17:48.574Z,1019.30
2022-10-04T06:18:48.562Z,1019.26
2022-10-04T06:19:48.559Z,1019.24
2022-10-04T06:20:48.520Z,1019.29
2022-10-04T06:21:48.545Z,1019.18
2022-10-04T06:23:37.446Z,1019.18
2022-10-04T06:24:37.506Z,1019.20
2022-10-04T06:25:37.416Z,1019.21
2022-10-04T06:26:37.417Z,1019.16
2022-10-04T06:27:37.386Z,1019.27
2022-10-04T06:28:37.438Z,1019.23
2022-10-04T06:29:37.366Z,1019.20
2022-10-04T06:30:37.433Z,1019.17
2022-10-04T06:31:37.349Z,1019.15
2022-10-04T06:32:37.348Z,1019.15
2022-10-04T06:33:37.306Z,1019.17
2022-10-04T06:34:37.303Z,1019.25
2022-10-04T06:35:37.287Z,1019.16
2022-10-04T06:36:37.299Z,1019.22
2022-10-04T06:37:37.275Z,1019.12
2022-10-04T06:38:37.263Z,1019.18
2022-10-04T06:39:37.238Z,1019.11
2022-10-04T06:40:37.218Z,1019.08
2022-10-04T06:41:37.218Z,1019.09
2022-10-04T06:42:37.205Z,1019.09
2022-10-04T06:43:37.184Z,1019.08
2022-10-04T06:44:37.168Z,1019.08
2022-10-04T06:45:37.153Z,1019.08
2022-10-04T06:46:37.209Z,1019.11
2022-10-04T06:47:37.141Z,1019.11
2022-10-04T06:48:37.154Z,1019.09
2022-10-04T06:49:37.094Z,1019.03
2022-10-04T06:50:37.203Z,1019.08
2022-10-04T06:51:37.106Z,1019.11
2022-10-04T06:52:37.082Z,1019.14
2022-10-04T06:53:37.079Z,1019.09
2022-10-04T06:54:37.041Z,1019.15
2022-10-04T06:55:37.038Z,1019.10
2022-10-04T06:56:37.023Z,1019.05
2022-10-04T06:57:36.990Z,1019.11
2022-10-04T06:58:36.992Z,1019.10
2022-10-04T06:59:36.962Z,1019.03
2022-10-04T07:00:36.961Z,1019.11
2022-10-04T07:01:37.044Z,1019.16
2022-10-04T07:02:37.074Z,1019.20
2022-10-04T07:03:36.920Z,1019.17
2022-10-04T07:05:03.268Z,1019.16
2022-10-04T07:05:37.892Z,1019.21
2022-10-04T07:06:36.902Z,1019.16
2022-10-04T07:07:36.874Z,1019.09
2022-10-04T07:08:36.892Z,1019.11
2022-10-04T07:09:36.835Z,1019.09
2022-10-04T07:10:36.821Z,1019.05
2022-10-04T07:11:36.825Z,1019.07
2022-10-04T07:12:36.813Z,1019.09
2022-10-04T07:13:36.800Z,1019.09
2022-10-04T07:14:36.783Z,1019.11
2022-10-04T07:15:36.816Z,1019.11
2022-10-04T07:16:36.773Z,1019.12
2022-10-04T07:17:36.744Z,1019.11
2022-10-04T07:18:36.751Z,1019.12
2022-10-04T07:19:36.828Z,1019.13
2022-10-04T07:20:36.718Z,1019.15
2022-10-04T07:21:36.675Z,1019.09
2022-10-04T07:22:36.683Z,1019.11
2022-10-04T07:23:36.708Z,1019.09
2022-10-04T07:24:36.662Z,1019.10
2022-10-04T07:25:36.673Z,1019.08
2022-10-04T07:26:36.628Z,1019.08
2022-10-04T07:27:36.635Z,1019.15
2022-10-04T07:28:36.681Z,1019.23
2022-10-04T07:29:41.176Z,1019.15
2022-10-04T07:30:37.615Z,1019.18
2022-10-04T07:31:36.569Z,1019.18
2022-10-04T07:32:36.592Z,1019.20
2022-10-04T07:33:36.535Z,1019.22
2022-10-04T07:34:36.531Z,1019.24
2022-10-04T07:35:36.521Z,1019.26
2022-10-04T07:36:36.493Z,1019.23
2022-10-04T07:37:36.469Z,1019.23
2022-10-04T07:38:36.486Z,1019.24
2022-10-04T07:39:36.457Z,1019.25
2022-10-04T07:40:36.462Z,1019.30
2022-10-04T07:41:36.553Z,1019.30
2022-10-04T07:42:36.445Z,1019.33
2022-10-04T07:43:36.406Z,1019.27
2022-10-04T07:44:36.437Z,1019.37
2022-10-04T07:45:36.385Z,1019.33
2022-10-04T07:46:36.426Z,1019.34
2022-10-04T07:47:36.354Z,1019.32
2022-10-04T07:48:36.350Z,1019.34
2022-10-04T07:49:36.313Z,1019.33
2022-10-04T07:50:36.330Z,1019.35
2022-10-04T07:51:36.297Z,1019.37
2022-10-04T07:52:36.307Z,1019.37
2022-10-04T07:53:36.330Z,1019.32
2022-10-04T07:54:36.260Z,1019.42
2022-10-04T07:55:36.230Z,1019.38
2022-10-04T07:56:36.247Z,1019.45
2022-10-04T07:57:36.202Z,1019.38
2022-10-04T07:58:36.226Z,1019.43
2022-10-04T07:59:36.205Z,1019.41
2022-10-04T08:00:36.181Z,1019.42
2022-10-04T08:01:36.212Z,1019.38
2022-10-04T08:02:36.215Z,1019.37
2022-10-04T08:03:36.224Z,1019.39
2022-10-04T08:04:36.112Z,1019.32
2022-10-04T08:05:36.115Z,1019.32
2022-10-04T08:06:36.108Z,1019.28
2022-10-04T08:07:36.089Z,1019.30
2022-10-04T08:08:36.771Z,1019.29
2022-10-04T08:09:36.074Z,1019.22
2022-10-04T08:10:36.059Z,1019.31
2022-10-04T08:11:36.020Z,1019.26
2022-10-04T08:12:36.032Z,1019.26
2022-10-04T08:13:36.012Z,1019.26
2022-10-04T08:14:35.980Z,1019.26
2022-10-04T08:15:36.061Z,1019.32
2022-10-04T08:16:35.978Z,1019.33
2022-10-04T08:17:35.941Z,1019.33
2022-10-04T08:18:35.983Z,1019.33
2022-10-04T08:19:35.911Z,1019.32
2022-10-04T08:20:35.909Z,1019.29
2022-10-04T08:21:35.897Z,1019.30
2022-10-04T08:22:35.909Z,1019.23
2022-10-04T08:23:35.933Z,1019.32
2022-10-04T08:24:35.870Z,1019.29
2022-10-04T08:25:35.868Z,1019.32
2022-10-04T08:26:35.840Z,1019.34
2022-10-04T08:27:35.837Z,1019.36
2022-10-04T08:28:36.187Z,1019.30
2022-10-04T08:29:35.805Z,1019.28
2022-10-04T08:30:35.888Z,1019.25
2022-10-04T08:31:35.805Z,1019.20
2022-10-04T08:32:35.766Z,1019.22
2022-10-04T08:33:35.737Z,1019.17
2022-10-04T08:34:35.738Z,1019.15
2022-10-04T08:35:35.721Z,1019.10
2022-10-04T08:36:35.696Z,1019.12
2022-10-04T08:37:35.687Z,1019.11
2022-10-04T08:38:35.680Z,1019.09
2022-10-04T08:39:35.657Z,1019.17
2022-10-04T08:40:35.671Z,1019.16
2022-10-04T08:41:35.642Z,1019.21
2022-10-04T08:42:35.640Z,1019.15
2022-10-04T08:43:35.612Z,1019.19
2022-10-04T08:44:35.629Z,1019.11
2022-10-04T08:45:35.586Z,1019.07
2022-10-04T08:46:35.666Z,1019.03
2022-10-04T08:47:35.559Z,1019.07
2022-10-04T08:48:35.557Z,1019.11
2022-10-04T08:49:35.586Z,1019.14
2022-10-04T08:50:35.518Z,1019.12
2022-10-04T08:51:35.588Z,1019.08
2022-10-04T08:52:35.519Z,1019.14
2022-10-04T08:53:36.202Z,1019.06
2022-10-04T08:54:35.485Z,1019.04
2022-10-04T08:55:35.717Z,1019.05
2022-10-04T08:56:35.445Z,1019.03
2022-10-04T08:57:35.414Z,1019.03
2022-10-04T08:58:35.462Z,1018.99
2022-10-04T08:59:35.416Z,1018.98
2022-10-04T09:00:35.399Z,1019.04
2022-10-04T09:01:35.408Z,1019.07
2022-10-04T09:02:35.392Z,1019.12
2022-10-04T09:03:36.302Z,1019.17
2022-10-04T09:04:35.345Z,1019.22
2022-10-04T09:05:35.370Z,1019.21
2022-10-04T09:06:35.316Z,1019.19
2022-10-04T09:07:35.283Z,1019.15
2022-10-04T09:08:35.310Z,1019.14
2022-10-04T09:09:35.316Z,1019.16
2022-10-04T09:10:36.266Z,1019.14
2022-10-04T09:11:35.247Z,1019.11
2022-10-04T09:12:35.254Z,1019.08
2022-10-04T09:13:35.249Z,1019.04
2022-10-04T09:14:35.229Z,1019.03
2022-10-04T09:15:35.265Z,1018.98
2022-10-04T09:16:35.185Z,1018.97
2022-10-04T09:17:35.163Z,1018.95
2022-10-04T09:18:35.164Z,1019.00
2022-10-04T09:19:35.172Z,1019.01
2022-10-04T09:20:39.440Z,1019.05
2022-10-04T09:21:35.126Z,1019.01
2022-10-04T09:22:35.110Z,1018.98
2022-10-04T09:23:35.081Z,1018.96
2022-10-04T09:24:35.072Z,1018.96
2022-10-04T09:25:35.063Z,1018.95
2022-10-04T09:26:35.079Z,1019.00
2022-10-04T09:27:54.342Z,1018.96
2022-10-04T09:28:36.141Z,1018.93
2022-10-04T09:29:34.999Z,1018.96
2022-10-04T09:30:35.002Z,1018.99
2022-10-04T09:31:35.101Z,1018.93
2022-10-04T09:32:35.657Z,1018.97
2022-10-04T09:33:34.962Z,1018.93
2022-10-04T09:34:37.492Z,1018.92
2022-10-04T09:35:34.943Z,1018.94
2022-10-04T09:36:34.920Z,1018.94
2022-10-04T09:37:34.915Z,1018.91
2022-10-04T09:38:34.905Z,1018.85
2022-10-04T09:39:34.881Z,1018.81
2022-10-04T09:40:34.855Z,1018.89
2022-10-04T09:41:34.872Z,1018.84
2022-10-04T09:42:34.827Z,1018.85
2022-10-04T09:43:34.822Z,1018.91
2022-10-04T09:44:34.837Z,1018.84
2022-10-04T09:45:34.802Z,1018.86
2022-10-04T09:46:34.863Z,1018.88
2022-10-04T09:47:34.757Z,1018.94
2022-10-04T09:48:34.784Z,1018.92
2022-10-04T09:49:34.755Z,1018.86
2022-10-04T09:50:34.739Z,1018.92
2022-10-04T09:51:34.737Z,1018.88
2022-10-04T09:52:34.712Z,1018.82
2022-10-04T09:53:34.727Z,1018.77
2022-10-04T09:54:34.676Z,1018.76
2022-10-04T09:55:34.681Z,1018.81
2022-10-04T09:56:34.680Z,1018.73
2022-10-04T09:57:34.626Z,1018.65
2022-10-04T09:58:34.651Z,1018.67
2022-10-04T09:59:34.614Z,1018.69
2022-10-04T10:00:34.595Z,1018.66
2022-10-04T10:01:34.685Z,1018.62
2022-10-04T10:02:34.604Z,1018.70
2022-10-04T10:03:34.555Z,1018.69
2022-10-04T10:04:34.558Z,1018.69
2022-10-04T10:05:34.547Z,1018.68
2022-10-04T10:06:34.564Z,1018.73
2022-10-04T10:07:34.523Z,1018.75
2022-10-04T10:08:34.505Z,1018.72
2022-10-04T10:09:34.489Z,1018.76
2022-10-04T10:10:34.493Z,1018.71
2022-10-04T10:11:34.485Z,1018.75
2022-10-04T10:12:34.443Z,1018.77
2022-10-04T10:13:34.440Z,1018.77
2022-10-04T10:14:34.431Z,1018.78
2022-10-04T10:15:34.446Z,1018.79
2022-10-04T10:16:34.441Z,1018.73
2022-10-04T10:17:34.364Z,1018.69
2022-10-04T10:18:34.366Z,1018.69
2022-10-04T10:19:34.374Z,1018.70
2022-10-04T10:20:34.335Z,1018.67
2022-10-04T10:21:34.339Z,1018.64
2022-10-04T10:22:34.325Z,1018.63
2022-10-04T10:23:34.349Z,1018.57
2022-10-04T10:24:34.281Z,1018.57
2022-10-04T10:25:34.365Z,1018.56
2022-10-04T10:26:34.277Z,1018.57
2022-10-04T10:27:34.268Z,1018.60
2022-10-04T10:28:34.352Z,1018.65
2022-10-04T10:29:34.214Z,1018.56
2022-10-04T10:30:34.211Z,1018.55
2022-10-04T10:31:34.242Z,1018.58
2022-10-04T10:32:34.216Z,1018.53
2022-10-04T10:33:34.175Z,1018.53
2022-10-04T10:34:34.162Z,1018.53
2022-10-04T10:35:34.309Z,1018.56
2022-10-04T10:36:34.152Z,1018.55
2022-10-04T10:37:34.127Z,1018.58
2022-10-04T10:38:34.103Z,1018.54
2022-10-04T10:39:34.124Z,1018.49
2022-10-04T10:40:34.084Z,1018.53
2022-10-04T10:41:34.092Z,1018.51
2022-10-04T10:42:34.085Z,1018.49
2022-10-04T10:43:34.073Z,1018.48
2022-10-04T10:44:34.048Z,1018.48
2022-10-04T10:45:34.023Z,1018.51
2022-10-04T10:46:34.054Z,1018.49
2022-10-04T10:47:33.992Z,1018.52
2022-10-04T10:48:33.971Z,1018.51
2022-10-04T10:49:33.970Z,1018.47
2022-10-04T10:50:33.985Z,1018.47
2022-10-04T10:51:33.932Z,1018.47
2022-10-04T10:52:33.942Z,1018.45
2022-10-04T10:53:33.911Z,1018.51
2022-10-04T10:54:34.764Z,1018.50
2022-10-04T10:55:33.893Z,1018.48
2022-10-04T10:56:33.866Z,1018.50
2022-10-04T10:57:33.873Z,1018.48
2022-10-04T10:58:33.868Z,1018.44
2022-10-04T10:59:33.841Z,1018.41
2022-10-04T11:00:33.830Z,1018.44
2022-10-04T11:01:33.923Z,1018.44
2022-10-04T11:02:48.713Z,1018.42
2022-10-04T11:03:34.916Z,1018.37
2022-10-04T11:04:33.772Z,1018.38
2022-10-04T11:05:33.744Z,1018.36
2022-10-04T11:06:33.728Z,1018.34
2022-10-04T11:07:33.757Z,1018.33
2022-10-04T11:08:33.709Z,1018.30
2022-10-04T11:09:33.695Z,1018.32
2022-10-04T11:10:33.690Z,1018.38
2022-10-04T11:11:33.683Z,1018.28
2022-10-04T11:12:33.668Z,1018.28
2022-10-04T11:13:33.651Z,1018.29
2022-10-04T11:14:33.617Z,1018.28
2022-10-04T11:15:33.644Z,1018.26
2022-10-04T11:16:33.635Z,1018.21
2022-10-04T11:17:33.595Z,1018.21
2022-10-04T11:18:33.610Z,1018.20
2022-10-04T11:19:33.573Z,1018.13
2022-10-04T11:20:33.569Z,1018.18
2022-10-04T11:21:33.536Z,1018.25
2022-10-04T11:22:38.084Z,1018.22
2022-10-04T11:23:33.525Z,1018.24
2022-10-04T11:24:33.509Z,1018.29
2022-10-04T11:25:33.493Z,1018.22
2022-10-04T11:26:33.494Z,1018.19
2022-10-04T11:27:33.488Z,1018.14
2022-10-04T11:28:33.483Z,1018.11
2022-10-04T11:29:33.431Z,1018.16
2022-10-04T11:30:33.439Z,1018.13
2022-10-04T11:31:33.460Z,1018.06
2022-10-04T11:32:33.438Z,1018.03
2022-10-04T11:33:33.387Z,1018.01
2022-10-04T11:34:33.376Z,1018.00
2022-10-04T11:35:33.366Z,1018.02
2022-10-04T11:36:33.335Z,1017.99
2022-10-04T11:37:33.352Z,1018.01
2022-10-04T11:38:33.328Z,1017.97
2022-10-04T11:39:33.293Z,1017.94
2022-10-04T11:40:33.297Z,1017.93
2022-10-04T11:41:33.350Z,1017.94
2022-10-04T11:42:33.294Z,1017.90
2022-10-04T11:43:33.269Z,1017.88
2022-10-04T11:44:33.985Z,1017.94
2022-10-04T11:45:33.234Z,1017.90
2022-10-04T11:46:33.258Z,1017.90
2022-10-04T11:47:33.219Z,1017.89
2022-10-04T11:48:33.173Z,1017.88
2022-10-04T11:49:33.172Z,1017.85
2022-10-04T11:50:33.170Z,1017.81
2022-10-04T11:51:33.148Z,1017.79
2022-10-04T11:52:33.153Z,1017.75
2022-10-04T11:53:33.133Z,1017.78
2022-10-04T11:54:33.122Z,1017.73
2022-10-04T11:55:33.103Z,1017.79
2022-10-04T11:56:33.086Z,1017.69
2022-10-04T11:57:33.086Z,1017.70
2022-10-04T11:58:33.059Z,1017.78
2022-10-04T11:59:33.075Z,1017.72
2022-10-04T12:00:33.033Z,1017.77
2022-10-04T12:01:33.039Z,1017.64
2022-10-04T12:02:33.208Z,1017.65
2022-10-04T12:03:33.056Z,1017.68
2022-10-04T12:04:33.025Z,1017.66
2022-10-04T12:05:32.999Z,1017.69
2022-10-04T12:06:32.970Z,1017.73
2022-10-04T12:07:32.941Z,1017.71